Time,TemperatureF,DewpointF,PressureIn,WindDirection,WindDirectionDegrees,WindSpeedMPH,WindSpeedGustMPH,Humidity,HourlyPrecipIn,Conditions,Clouds,dailyrainin,SolarRadiationWatts/m^2,SoftwareType,DateUTC
2013-02-19 00:01:00,40.0,15.0,-100.00,WSW,248,4.0,6.0,35,-99.99,,,0.00,0.000000,,2013-02-19 08:01:00,
2013-02-19 00:11:00,40.0,15.0,-100.00,WSW,248,4.0,6.0,35,-99.99,,,0.00,0.000000,,2013-02-19 08:11:00,
2013-02-19 00:42:00,42.0,17.0,-100.00,WNW,284,8.0,12.0,35,-99.99,,,0.00,0.000000,,2013-02-19 08:42:00,
2013-02-19 00:52:00,42.0,17.0,-100.00,WNW,284,8.0,12.0,35,-99.99,,,0.00,0.000000,,2013-02-19 08:52:00,
2013-02-19 01:01:00,42.0,17.0,-100.00,WNW,284,8.0,12.0,35,-99.99,,,0.00,0.000000,,2013-02-19 09:01:00,
2013-02-19 01:11:00,42.0,17.0,-100.00,WNW,284,8.0,12.0,35,-99.99,,,0.00,0.000000,,2013-02-19 09:11:00,
2013-02-19 01:41:00,41.0,15.0,-100.00,WSW,243,5.0,10.0,34,-99.99,,,0.00,0.000000,,2013-02-19 09:41:00,
2013-02-19 01:53:00,41.0,15.0,-100.00,WSW,243,5.0,10.0,34,-99.99,,,0.00,0.000000,,2013-02-19 09:53:00,
2013-02-19 02:01:00,41.0,15.0,-100.00,WSW,243,5.0,10.0,34,-99.99,,,0.00,0.000000,,2013-02-19 10:01:00,
2013-02-19 02:11:00,41.0,15.0,-100.00,WSW,243,5.0,10.0,34,-99.99,,,0.00,0.000000,,2013-02-19 10:11:00,
2013-02-19 02:41:00,45.0,18.0,-100.00,WSW,251,15.0,25.0,34,-99.99,,,0.00,0.000000,,2013-02-19 10:41:00,
2013-02-19 02:52:00,45.0,18.0,-100.00,WSW,251,15.0,25.0,34,-99.99,,,0.00,0.000000,,2013-02-19 10:52:00,
2013-02-19 03:01:00,45.0,18.0,-100.00,WSW,251,15.0,25.0,34,-99.99,,,0.00,0.000000,,2013-02-19 11:01:00,
2013-02-19 03:11:00,45.0,18.0,-100.00,WSW,251,15.0,25.0,34,-99.99,,,0.00,0.000000,,2013-02-19 11:11:00,
2013-02-19 03:42:00,39.0,19.0,-100.00,WNW,288,7.0,11.0,42,-99.99,,,0.00,0.000000,,2013-02-19 11:42:00,
2013-02-19 03:52:00,39.0,19.0,-100.00,WNW,288,7.0,11.0,42,-99.99,,,0.00,0.000000,,2013-02-19 11:52:00,
2013-02-19 04:01:00,39.0,19.0,-100.00,WNW,288,7.0,11.0,42,-99.99,,,0.00,0.000000,,2013-02-19 12:01:00,
2013-02-19 04:12:00,39.0,19.0,-100.00,WNW,288,7.0,11.0,42,-99.99,,,0.00,0.000000,,2013-02-19 12:12:00,
2013-02-19 04:42:00,36.0,20.0,-100.00,SSW,205,3.0,6.0,50,-99.99,,,0.00,0.000000,,2013-02-19 12:42:00,
2013-02-19 04:52:00,36.0,20.0,-100.00,SSW,205,3.0,6.0,50,-99.99,,,0.00,0.000000,,2013-02-19 12:52:00,
2013-02-19 05:02:00,36.0,20.0,-100.00,SSW,205,3.0,6.0,50,-99.99,,,0.00,0.000000,,2013-02-19 13:02:00,
2013-02-19 05:11:00,36.0,20.0,-100.00,SSW,205,3.0,6.0,50,-99.99,,,0.00,0.000000,,2013-02-19 13:11:00,
2013-02-19 05:41:00,36.0,20.0,-100.00,East,89,3.0,7.0,52,-99.99,,,0.00,0.000000,,2013-02-19 13:41:00,
2013-02-19 05:52:00,36.0,20.0,-100.00,East,89,3.0,7.0,52,-99.99,,,0.00,0.000000,,2013-02-19 13:52:00,
2013-02-19 06:01:00,36.0,20.0,-100.00,East,89,3.0,7.0,52,-99.99,,,0.00,0.000000,,2013-02-19 14:01:00,
2013-02-19 06:11:00,36.0,20.0,-100.00,East,89,3.0,7.0,52,-99.99,,,0.00,0.000000,,2013-02-19 14:11:00,
2013-02-19 06:42:00,34.0,19.0,-100.00,NNW,329,1.0,3.0,54,-99.99,,,0.00,0.000000,,2013-02-19 14:42:00,
2013-02-19 06:52:00,34.0,19.0,-100.00,NNW,329,1.0,3.0,54,-99.99,,,0.00,0.000000,,2013-02-19 14:52:00,
2013-02-19 07:01:00,34.0,19.0,-100.00,NNW,329,1.0,3.0,54,-99.99,,,0.00,0.000000,,2013-02-19 15:01:00,
2013-02-19 07:11:00,34.0,19.0,-100.00,NNW,329,1.0,3.0,54,-99.99,,,0.00,0.000000,,2013-02-19 15:11:00,
2013-02-19 07:42:00,36.0,23.0,-100.00,West,271,3.0,7.0,60,-99.99,,,0.00,43.930000,,2013-02-19 15:42:00,
2013-02-19 07:52:00,36.0,23.0,-100.00,West,271,3.0,7.0,60,-99.99,,,0.00,43.930000,,2013-02-19 15:52:00,
2013-02-19 08:01:00,36.0,23.0,-100.00,West,271,3.0,7.0,60,-99.99,,,0.00,43.930000,,2013-02-19 16:01:00,
2013-02-19 08:11:00,36.0,23.0,-100.00,West,271,3.0,7.0,60,-99.99,,,0.00,43.930000,,2013-02-19 16:11:00,
2013-02-19 10:11:00,43.0,24.0,-100.00,WNW,282,8.0,21.0,45,-99.99,,,0.00,422.339996,,2013-02-19 18:11:00,
2013-02-19 10:41:00,44.0,17.0,-100.00,West,279,12.0,20.0,34,-99.99,,,0.00,301.709991,,2013-02-19 18:41:00,
2013-02-19 10:52:00,44.0,17.0,-100.00,West,279,12.0,20.0,34,-99.99,,,0.00,301.709991,,2013-02-19 18:52:00,
2013-02-19 11:01:00,44.0,17.0,-100.00,West,279,12.0,20.0,34,-99.99,,,0.00,301.709991,,2013-02-19 19:01:00,
2013-02-19 11:11:00,44.0,17.0,-100.00,West,279,12.0,20.0,34,-99.99,,,0.00,301.709991,,2013-02-19 19:11:00,
2013-02-19 11:41:00,46.0,16.0,-100.00,West,275,13.0,23.0,30,-99.99,,,0.00,400.730011,,2013-02-19 19:41:00,
2013-02-19 11:52:00,46.0,16.0,-100.00,West,275,13.0,23.0,30,-99.99,,,0.00,400.730011,,2013-02-19 19:52:00,
2013-02-19 12:01:00,46.0,16.0,-100.00,West,275,13.0,23.0,30,-99.99,,,0.00,400.730011,,2013-02-19 20:01:00,
2013-02-19 12:11:00,46.0,16.0,-100.00,West,275,13.0,23.0,30,-99.99,,,0.00,400.730011,,2013-02-19 20:11:00,
2013-02-19 12:41:00,45.0,14.0,-100.00,West,266,13.0,21.0,27,-99.99,,,0.00,291.600006,,2013-02-19 20:41:00,
2013-02-19 12:52:00,45.0,14.0,-100.00,West,266,13.0,21.0,27,-99.99,,,0.00,291.600006,,2013-02-19 20:52:00,
2013-02-19 13:01:00,45.0,14.0,-100.00,West,266,13.0,21.0,27,-99.99,,,0.00,291.600006,,2013-02-19 21:01:00,
2013-02-19 13:11:00,45.0,14.0,-100.00,West,266,13.0,21.0,27,-99.99,,,0.00,291.600006,,2013-02-19 21:11:00,
2013-02-19 13:42:00,46.0,12.0,-100.00,WSW,247,17.0,27.0,24,-99.99,,,0.00,242.899994,,2013-02-19 21:42:00,
2013-02-19 13:52:00,46.0,12.0,-100.00,WSW,247,17.0,27.0,24,-99.99,,,0.00,242.899994,,2013-02-19 21:52:00,
2013-02-19 14:01:00,46.0,12.0,-100.00,WSW,247,17.0,27.0,24,-99.99,,,0.00,242.899994,,2013-02-19 22:01:00,
2013-02-19 14:11:00,46.0,12.0,-100.00,WSW,247,17.0,27.0,24,-99.99,,,0.00,242.899994,,2013-02-19 22:11:00,
2013-02-19 14:41:00,46.0,15.0,-100.00,South,179,7.0,15.0,27,-99.99,,,0.00,205.710007,,2013-02-19 22:41:00,
2013-02-19 14:52:00,46.0,15.0,-100.00,South,179,7.0,15.0,27,-99.99,,,0.00,205.710007,,2013-02-19 22:52:00,
2013-02-19 15:01:00,46.0,15.0,-100.00,South,179,7.0,15.0,27,-99.99,,,0.00,205.710007,,2013-02-19 23:01:00,
2013-02-19 15:11:00,46.0,15.0,-100.00,South,179,7.0,15.0,27,-99.99,,,0.00,205.710007,,2013-02-19 23:11:00,
2013-02-19 15:41:00,43.0,18.0,-100.00,ENE,78,6.0,12.0,36,-99.99,,,0.00,73.570000,,2013-02-19 23:41:00,
2013-02-19 15:52:00,43.0,18.0,-100.00,ENE,78,6.0,12.0,36,-99.99,,,0.00,73.570000,,2013-02-19 23:52:00,
2013-02-19 16:01:00,43.0,18.0,-100.00,ENE,78,6.0,12.0,36,-99.99,,,0.00,73.570000,,2013-02-20 00:01:00,
2013-02-19 16:11:00,43.0,18.0,-100.00,ENE,78,6.0,12.0,36,-99.99,,,0.00,73.570000,,2013-02-20 00:11:00,
2013-02-19 16:41:00,43.0,16.0,-100.00,ENE,70,4.0,7.0,32,-99.99,,,0.00,45.560001,,2013-02-20 00:41:00,
2013-02-19 16:52:00,43.0,16.0,-100.00,ENE,70,4.0,7.0,32,-99.99,,,0.00,45.560001,,2013-02-20 00:52:00,
2013-02-19 17:02:00,43.0,16.0,-100.00,ENE,70,4.0,7.0,32,-99.99,,,0.00,45.560001,,2013-02-20 01:02:00,
2013-02-19 17:11:00,43.0,16.0,-100.00,ENE,70,4.0,7.0,32,-99.99,,,0.00,45.560001,,2013-02-20 01:11:00,
2013-02-19 17:42:00,42.0,14.0,-100.00,WSW,247,6.0,11.0,31,-99.99,,,0.00,34.169998,,2013-02-20 01:42:00,
2013-02-19 17:52:00,42.0,14.0,-100.00,WSW,247,6.0,11.0,31,-99.99,,,0.00,34.169998,,2013-02-20 01:52:00,
2013-02-19 18:01:00,42.0,14.0,-100.00,WSW,247,6.0,11.0,31,-99.99,,,0.00,34.169998,,2013-02-20 02:01:00,
2013-02-19 18:11:00,42.0,14.0,-100.00,WSW,247,6.0,11.0,31,-99.99,,,0.00,34.169998,,2013-02-20 02:11:00,
2013-02-19 18:42:00,40.0,16.0,-100.00,NNW,328,7.0,13.0,37,-99.99,,,0.00,0.000000,,2013-02-20 02:42:00,
2013-02-19 18:52:00,40.0,16.0,-100.00,NNW,328,7.0,13.0,37,-99.99,,,0.00,0.000000,,2013-02-20 02:52:00,
2013-02-19 19:01:00,40.0,16.0,-100.00,NNW,328,7.0,13.0,37,-99.99,,,0.00,0.000000,,2013-02-20 03:01:00,
2013-02-19 19:12:00,40.0,16.0,-100.00,NNW,328,7.0,13.0,37,-99.99,,,0.00,0.000000,,2013-02-20 03:12:00,
2013-02-19 19:41:00,38.0,19.0,-100.00,WNW,300,5.0,10.0,45,-99.99,,,0.00,0.000000,,2013-02-20 03:41:00,
2013-02-19 19:52:00,38.0,19.0,-100.00,WNW,300,5.0,10.0,45,-99.99,,,0.00,0.000000,,2013-02-20 03:52:00,
2013-02-19 20:01:00,38.0,19.0,-100.00,WNW,300,5.0,10.0,45,-99.99,,,0.00,0.000000,,2013-02-20 04:01:00,
2013-02-19 20:11:00,38.0,19.0,-100.00,WNW,300,5.0,10.0,45,-99.99,,,0.00,0.000000,,2013-02-20 04:11:00,
2013-02-19 20:41:00,37.0,19.0,-100.00,NNW,328,7.0,11.0,48,-99.99,,,0.00,0.000000,,2013-02-20 04:41:00,
2013-02-19 20:52:00,37.0,19.0,-100.00,NNW,328,7.0,11.0,48,-99.99,,,0.00,0.000000,,2013-02-20 04:52:00,
2013-02-19 21:02:00,37.0,19.0,-100.00,NNW,328,7.0,11.0,48,-99.99,,,0.00,0.000000,,2013-02-20 05:02:00,
2013-02-19 21:12:00,37.0,19.0,-100.00,NNW,328,7.0,11.0,48,-99.99,,,0.00,0.000000,,2013-02-20 05:12:00,
2013-02-19 21:43:00,36.0,20.0,-100.00,NNW,328,9.0,15.0,51,-99.99,,,0.00,0.000000,,2013-02-20 05:43:00,
2013-02-19 21:52:00,36.0,20.0,-100.00,NNW,328,9.0,15.0,51,-99.99,,,0.00,0.000000,,2013-02-20 05:52:00,
2013-02-19 22:01:00,36.0,20.0,-100.00,NNW,328,9.0,15.0,51,-99.99,,,0.00,0.000000,,2013-02-20 06:01:00,
2013-02-19 22:11:00,36.0,20.0,-100.00,NNW,328,9.0,15.0,51,-99.99,,,0.00,0.000000,,2013-02-20 06:11:00,
2013-02-19 22:42:00,36.0,21.0,-100.00,NNW,344,11.0,18.0,54,-99.99,,,0.00,0.000000,,2013-02-20 06:42:00,
2013-02-19 22:52:00,36.0,21.0,-100.00,NNW,344,11.0,18.0,54,-99.99,,,0.00,0.000000,,2013-02-20 06:52:00,
2013-02-19 23:01:00,36.0,21.0,-100.00,NNW,344,11.0,18.0,54,-99.99,,,0.00,0.000000,,2013-02-20 07:01:00,
2013-02-19 23:11:00,36.0,21.0,-100.00,NNW,344,11.0,18.0,54,-99.99,,,0.00,0.000000,,2013-02-20 07:11:00,